Terminal Aerodrome Forecast
Issued by NWS State College, PA

Home | Current Version | Previous Version | Text Only | Print | Product List | Glossary On
Versions: 1 2 3 4 5 6 7 8 9 10 11 12 13 14 15 16 17 18 19 20 21 22 23 24 25 26
000
FTUS41 KCTP 271126
TAFIPT
TAF
KIPT 271126Z 2712/2812 10005KT 5SM -SHRA BR SCT007 BKN012 OVC050
      TEMPO 2712/2713 3/4SM BR OVC030
     FM271400 31005KT P6SM VCSH BKN040
     FM272300 30005KT P6SM BKN050
     FM280500 VRB04KT 4SM BR SCT030
     FM280900 VRB03KT 2SM BR SCT025=

USA.gov is the U.S. government's official web portal to all federal, state and local government web resources and services.